createdAt,value
2022-09-15T09:15:26.746Z,11.20
2022-09-15T09:18:38.791Z,11.70
2022-09-15T09:21:23.853Z,12.58
2022-09-15T09:24:26.008Z,13.43
2022-09-15T09:26:58.112Z,15.40
2022-09-15T09:29:32.976Z,12.95
2022-09-15T09:32:12.272Z,14.30
2022-09-15T09:35:08.923Z,15.63
2022-09-15T09:37:37.783Z,15.38
2022-09-15T09:40:07.462Z,15.30
2022-09-15T09:42:42.840Z,14.50
2022-09-15T09:45:16.268Z,14.43
2022-09-15T09:47:46.482Z,13.62
2022-09-15T09:53:22.268Z,13.65
2022-09-15T09:55:51.115Z,13.58
2022-09-15T09:58:28.808Z,12.37
2022-09-15T10:00:59.149Z,12.47
2022-09-15T10:03:32.687Z,12.35
2022-09-15T10:08:38.399Z,12.00
2022-09-15T10:11:10.397Z,12.85
2022-09-15T10:13:42.481Z,11.63
2022-09-15T10:16:11.850Z,13.32
2022-09-15T10:18:40.952Z,11.12
2022-09-15T10:21:11.367Z,12.37
2022-09-15T10:23:40.063Z,10.70
2022-09-15T10:26:20.951Z,10.68
2022-09-15T10:29:12.851Z,9.85
2022-09-15T10:31:45.155Z,10.03
2022-09-15T10:34:31.483Z,10.35
2022-09-15T10:37:15.096Z,9.58
2022-09-15T10:39:52.801Z,9.25
2022-09-15T10:42:37.103Z,8.68
2022-09-15T10:45:14.207Z,8.68
2022-09-15T10:48:08.415Z,7.10
2022-09-15T10:51:00.402Z,6.65
2022-09-15T10:53:34.944Z,6.25
2022-09-15T10:59:56.352Z,7.28
2022-09-15T11:03:03.567Z,6.45
2022-09-15T11:05:48.815Z,6.05
2022-09-15T11:08:38.563Z,7.03
2022-09-15T11:11:22.383Z,8.80
2022-09-15T11:14:12.215Z,9.53
2022-09-15T11:17:22.479Z,9.55
2022-09-15T11:20:03.339Z,9.33
2022-09-15T11:22:35.447Z,8.80
2022-09-15T11:25:13.296Z,8.00
2022-09-15T11:27:44.009Z,8.83
2022-09-15T11:30:17.768Z,8.58
2022-09-15T11:32:57.896Z,7.53
2022-09-15T11:35:39.560Z,8.85
2022-09-15T11:38:29.172Z,9.90
2022-09-15T11:41:06.443Z,7.73
2022-09-15T11:47:08.047Z,8.10
2022-09-15T11:49:48.472Z,7.85
2022-09-15T11:52:45.039Z,8.48
2022-09-15T11:55:34.911Z,16.40
2022-09-15T11:58:06.968Z,8.85
2022-09-15T12:00:37.391Z,8.45
2022-09-15T12:03:24.143Z,7.20
2022-09-15T12:06:08.022Z,6.22
2022-09-15T12:08:46.057Z,5.03
2022-09-15T12:11:17.831Z,4.10
2022-09-15T12:13:47.216Z,5.12
2022-09-15T12:16:17.251Z,4.65
2022-09-15T12:19:08.580Z,4.00
2022-09-15T12:21:40.752Z,3.87
2022-09-15T12:24:34.137Z,4.20
2022-09-15T12:27:03.394Z,4.03
2022-09-15T12:29:42.101Z,3.87
2022-09-15T12:32:29.915Z,4.10
2022-09-15T12:35:04.442Z,4.67
2022-09-15T12:37:47.543Z,4.10
2022-09-15T12:40:38.113Z,4.65
2022-09-15T12:43:16.513Z,3.98
2022-09-15T12:45:57.458Z,4.00
2022-09-15T12:48:31.980Z,4.10
2022-09-15T12:51:10.559Z,4.03
2022-09-15T12:53:44.533Z,3.72
2022-09-15T12:56:16.312Z,4.53
2022-09-15T12:58:49.555Z,4.33
2022-09-15T13:01:27.447Z,4.20
2022-09-15T13:04:02.225Z,4.22
2022-09-15T13:06:34.947Z,4.40
2022-09-15T13:09:09.951Z,4.47
2022-09-15T13:11:40.939Z,4.97
2022-09-15T13:14:30.529Z,4.92
2022-09-15T13:17:23.287Z,5.10
2022-09-15T13:20:15.289Z,4.90
2022-09-15T13:23:03.825Z,5.08
2022-09-15T13:25:52.984Z,4.87
2022-09-15T13:28:40.783Z,4.80
2022-09-15T13:31:39.191Z,4.60
2022-09-15T13:35:15.609Z,4.33
2022-09-15T13:38:22.680Z,4.30
2022-09-15T13:40:50.585Z,5.10
2022-09-15T13:43:59.024Z,5.28
2022-09-15T13:47:15.400Z,5.28
2022-09-15T13:50:15.352Z,5.42
2022-09-15T13:53:05.916Z,5.28
2022-09-15T13:55:55.612Z,5.65
2022-09-15T13:59:04.564Z,4.83
2022-09-15T14:01:15.455Z,5.60
2022-09-15T14:03:50.303Z,5.37
2022-09-15T14:06:31.241Z,5.30
2022-09-15T14:09:04.359Z,4.75
2022-09-15T14:11:34.971Z,4.50
2022-09-15T14:14:04.032Z,4.65
2022-09-15T14:16:39.203Z,4.78
2022-09-15T14:22:31.392Z,5.28
2022-09-15T14:25:03.160Z,4.87
2022-09-15T14:27:34.488Z,4.58
2022-09-15T14:30:08.656Z,4.58
2022-09-15T14:32:40.105Z,4.47
2022-09-15T14:35:13.857Z,5.08
2022-09-15T14:38:01.031Z,5.20
2022-09-15T14:40:38.074Z,5.35
2022-09-15T14:43:39.307Z,5.40
2022-09-15T14:46:13.886Z,5.53
2022-09-15T14:48:43.718Z,5.47
2022-09-15T14:51:18.800Z,5.42
2022-09-15T14:53:49.951Z,5.25
2022-09-15T14:56:23.935Z,5.78
2022-09-15T14:59:01.831Z,6.10
2022-09-15T15:01:45.640Z,6.22
2022-09-15T15:04:26.281Z,5.80
2022-09-15T15:07:03.904Z,5.80
2022-09-15T15:12:38.680Z,6.20
2022-09-15T15:15:10.192Z,5.55
2022-09-15T15:17:51.196Z,5.75
2022-09-15T15:20:28.401Z,5.40
2022-09-15T15:23:18.591Z,5.97
2022-09-15T15:25:47.736Z,6.55
2022-09-15T15:28:38.776Z,6.05
2022-09-15T15:31:19.192Z,5.78
2022-09-15T15:33:50.377Z,5.55
2022-09-15T15:36:29.390Z,6.00
2022-09-15T15:42:06.160Z,5.83
2022-09-15T15:45:12.504Z,6.03
2022-09-15T15:48:01.886Z,4.75
2022-09-15T15:50:49.936Z,6.25
2022-09-15T15:53:40.335Z,6.58
2022-09-15T15:56:27.943Z,5.85
2022-09-15T15:59:17.330Z,6.08
2022-09-15T16:02:07.106Z,6.40
2022-09-15T16:04:55.136Z,5.92
2022-09-15T16:07:43.088Z,5.58
2022-09-15T16:10:34.082Z,5.90
2022-09-15T16:13:23.752Z,6.50
2022-09-15T16:16:17.095Z,6.12
2022-09-15T16:19:04.891Z,6.28
2022-09-15T16:21:52.335Z,6.60
2022-09-15T16:24:40.008Z,7.37
2022-09-15T16:27:29.194Z,6.80
2022-09-15T16:30:16.327Z,6.95
2022-09-15T16:33:05.547Z,6.87
2022-09-15T16:35:59.553Z,6.97
2022-09-15T16:38:47.025Z,6.75
2022-09-15T16:41:39.019Z,6.67
2022-09-15T16:44:23.370Z,7.28
2022-09-15T16:47:12.831Z,7.70
2022-09-15T16:49:59.958Z,8.68
2022-09-15T16:52:46.928Z,8.83
2022-09-15T16:55:51.512Z,8.88
2022-09-15T16:58:40.463Z,9.25
2022-09-15T17:01:27.566Z,8.73
2022-09-15T17:04:16.968Z,9.00
2022-09-15T17:07:04.639Z,8.77
2022-09-15T17:09:53.169Z,8.75
2022-09-15T17:12:42.024Z,9.05
2022-09-15T17:15:49.013Z,9.25
2022-09-15T17:18:36.609Z,9.05
2022-09-15T17:21:25.478Z,9.55
2022-09-15T17:24:13.387Z,8.53
2022-09-15T17:27:00.850Z,8.70
2022-09-15T17:29:47.883Z,7.85
2022-09-15T17:32:35.631Z,9.23
2022-09-15T17:35:26.005Z,7.90
2022-09-15T17:38:13.760Z,9.28
2022-09-15T17:41:01.589Z,8.20
2022-09-15T17:43:50.105Z,8.25
2022-09-15T17:46:37.958Z,7.95
2022-09-15T17:49:25.120Z,7.92
2022-09-15T17:52:12.585Z,7.30
2022-09-15T17:55:01.779Z,7.05
2022-09-15T17:57:50.271Z,7.70
2022-09-15T18:00:39.799Z,8.23
2022-09-15T18:03:29.120Z,8.15
2022-09-15T18:06:16.784Z,8.88
2022-09-15T18:09:04.178Z,9.28
2022-09-15T18:11:51.840Z,8.40
2022-09-15T18:14:39.499Z,9.55
2022-09-15T18:17:27.553Z,9.35
2022-09-15T18:20:17.676Z,9.95
2022-09-15T18:23:05.160Z,10.35
2022-09-15T18:25:52.608Z,10.63
2022-09-15T18:28:39.960Z,10.82
2022-09-15T18:31:27.264Z,10.68
2022-09-15T18:34:14.696Z,11.80
2022-09-15T18:37:02.802Z,13.05
2022-09-15T18:39:50.227Z,13.60
2022-09-15T18:42:38.337Z,14.05
2022-09-15T18:45:25.615Z,14.35
2022-09-15T18:48:15.864Z,13.68
2022-09-15T18:51:07.814Z,13.95
2022-09-15T18:53:55.119Z,15.65
2022-09-15T18:56:42.568Z,17.65
2022-09-15T18:59:32.657Z,18.32
2022-09-15T19:02:20.024Z,18.33
2022-09-15T19:05:08.379Z,19.80
2022-09-15T19:07:57.065Z,18.67
2022-09-15T19:10:49.191Z,17.02
2022-09-15T19:13:39.640Z,18.27
2022-09-15T19:16:46.665Z,16.30
2022-09-15T19:19:17.879Z,16.80
2022-09-15T19:22:05.239Z,17.27
2022-09-15T19:24:53.231Z,16.17
2022-09-15T19:27:44.497Z,16.17
2022-09-15T19:30:32.338Z,15.43
2022-09-15T19:33:20.330Z,14.80
2022-09-15T19:36:28.368Z,15.03
2022-09-15T19:39:00.547Z,14.23
2022-09-15T19:41:47.801Z,13.25
2022-09-15T19:44:35.777Z,14.05
2022-09-15T19:47:23.467Z,13.45
2022-09-15T19:50:12.399Z,13.90
2022-09-15T19:52:59.853Z,13.03
2022-09-15T19:55:54.114Z,12.75
2022-09-15T19:58:41.479Z,12.53
2022-09-15T20:01:30.740Z,12.80
2022-09-15T20:04:18.359Z,11.38
2022-09-15T20:07:05.791Z,10.35
2022-09-15T20:09:53.670Z,10.72
2022-09-15T20:12:41.328Z,11.50
2022-09-15T20:15:30.447Z,10.82
2022-09-15T20:18:18.383Z,10.78
2022-09-15T20:21:21.754Z,11.68
2022-09-15T20:24:00.839Z,10.95
2022-09-15T20:26:48.304Z,10.72
2022-09-15T20:29:35.977Z,11.57
2022-09-15T20:32:28.141Z,11.33
2022-09-15T20:35:14.415Z,11.03
2022-09-15T20:38:01.424Z,11.12
2022-09-15T20:40:48.881Z,11.40
2022-09-15T20:43:40.209Z,11.48
2022-09-15T20:46:29.295Z,10.82
2022-09-15T20:49:16.953Z,11.23
2022-09-15T20:52:06.164Z,11.10
2022-09-15T20:54:54.199Z,11.67
2022-09-15T20:57:41.935Z,12.60
2022-09-15T21:00:33.673Z,12.53
2022-09-15T21:03:18.320Z,11.75
2022-09-15T21:06:08.401Z,12.20
2022-09-15T21:08:57.818Z,12.73
2022-09-15T21:11:45.152Z,11.97
2022-09-15T21:14:32.224Z,11.60
2022-09-15T21:17:20.039Z,12.00
2022-09-15T21:20:07.567Z,11.30
2022-09-15T21:22:56.107Z,11.68
2022-09-15T21:25:43.599Z,10.23
2022-09-15T21:28:31.817Z,11.78
2022-09-15T21:31:21.590Z,11.85
2022-09-15T21:34:09.671Z,12.23
2022-09-15T21:36:58.008Z,12.80
2022-09-15T21:39:45.377Z,13.03
2022-09-15T21:42:34.602Z,12.30
2022-09-15T21:45:22.203Z,12.80
2022-09-15T21:48:09.496Z,12.15
2022-09-15T21:50:56.791Z,12.20
2022-09-15T21:53:44.543Z,13.50
2022-09-15T21:56:31.992Z,13.40
2022-09-15T21:59:19.439Z,11.93
2022-09-15T22:02:06.854Z,12.80
2022-09-15T22:04:54.752Z,12.15
2022-09-15T22:07:42.120Z,14.55
2022-09-15T22:10:30.439Z,14.03
2022-09-15T22:13:17.958Z,15.20
2022-09-15T22:16:07.915Z,14.95
2022-09-15T22:18:55.815Z,15.18
2022-09-15T22:21:43.267Z,15.68
2022-09-15T22:24:30.862Z,15.50
2022-09-15T22:27:17.927Z,16.37
2022-09-15T22:30:06.398Z,15.43
2022-09-15T22:32:54.272Z,15.55
2022-09-15T22:35:41.575Z,15.15
2022-09-15T22:38:30.680Z,16.00
2022-09-15T22:41:19.431Z,16.20
2022-09-15T22:44:08.287Z,15.68
2022-09-15T22:46:55.696Z,16.30
2022-09-15T22:49:43.082Z,15.50
2022-09-15T22:52:30.671Z,16.32
2022-09-15T22:55:18.969Z,15.95
2022-09-15T22:58:06.682Z,16.05
2022-09-15T23:00:54.126Z,15.18
2022-09-15T23:03:41.824Z,15.10
2022-09-15T23:06:31.902Z,15.88
2022-09-15T23:09:19.216Z,14.43
2022-09-15T23:12:08.130Z,15.38
2022-09-15T23:14:55.679Z,14.38
2022-09-15T23:17:42.904Z,14.03
2022-09-15T23:20:30.104Z,13.70
2022-09-15T23:23:17.411Z,14.83
2022-09-15T23:26:06.061Z,14.28
2022-09-15T23:28:53.568Z,14.15
2022-09-15T23:31:41.250Z,13.70
2022-09-15T23:34:28.648Z,13.65
2022-09-15T23:37:16.120Z,13.70
2022-09-15T23:40:03.572Z,13.43
2022-09-15T23:42:50.936Z,15.20
2022-09-15T23:45:38.896Z,13.88
2022-09-15T23:48:26.242Z,13.95
2022-09-15T23:51:13.600Z,13.83
2022-09-15T23:54:02.394Z,13.75
2022-09-15T23:56:50.055Z,12.85
2022-09-15T23:59:37.288Z,13.70
